WTTO2: Illinois River, Watts, OK

Data processed at Mon Aug 21 2017 23:50


All information presented herein is the property of the government of the United States of America and may be revised or deleted at any time without prior notice.
Dissemination of this information without the expressed written consent of the Public Affairs Office, Tulsa District U.S. Army Corps of Engineers is strictly prohibited.
These data are gathered electronically and, as presented, have not undergone any form of quality control. These data are not guaranteed to be valid or correct.
Go to home page.
Go to station list.

Upstream stations:

Downstream station:
Previous Day
Next Day
Current Day
    
SHEF ID:       WTTO2     Illinois River near Watts, OK
STATION TYPE:  

               PRECIP     STAGE  STAGE(2)  RIV-FLOW   VOLTAGE  BAT-LOAD
                   in        ft        ft       cfs      volt      volt
              Ccp-Rev   Ccp-Rev   Ccp-Rev   Ccp-Rev   Ccp-Rev   Ccp-Rev
(US/Central)
08/19 00:00      0.00      5.22      5.34      1257     12.90     11.72
08/19 01:00      0.00      5.24      5.35      1270     12.90     11.72
08/19 02:00      0.00      5.25      5.37      1277     12.90     11.72
08/19 03:00      0.00      5.25      5.37      1277     12.90     11.72
08/19 04:00      0.00      5.24      5.35      1270     12.80     11.72
08/19 05:00      0.00      5.23      5.34      1264     12.80     11.72
08/19 06:00      0.00      5.24      5.35      1270     12.80     11.66
08/19 07:00      0.00      5.32      5.44      1326     12.90     11.66
08/19 08:00      0.00      5.55      5.66      1491     13.80     11.77
08/19 09:00      0.00      5.87      5.99      1719     14.00     12.60
08/19 10:00      0.00      6.12      6.20      1907     14.00     12.89
08/19 11:00      0.00      6.25      6.30      2009     14.00     12.83
08/19 12:00      0.00      6.26      6.38      2017     14.00     12.83
08/19 13:00      0.00      6.22      6.32      1985     14.00     12.77
08/19 14:00      0.00      6.13      6.28      1915     14.00     12.71
08/19 15:00      0.00      6.03      6.23      1838     14.00     12.71
08/19 16:00      0.00      5.93      6.02      1763     14.00     12.42
08/19 17:00      0.00      5.82      5.98      1682     14.00     12.36
08/19 18:00      0.00      5.72      5.88      1610     13.70     12.30
08/19 19:00      0.00      5.62      5.79      1540     13.30     12.13
08/19 20:00      0.00      5.53      5.71      1477     13.00     11.95
08/19 21:00      0.00      5.45      5.63      1418     13.00     11.66
08/19 22:00      0.00      5.38      5.56      1368     12.90     11.66
08/19 23:00      0.00      5.31      5.49      1319     12.90     11.66